sensor_id;sensor_type;location;lat;lon;timestamp;temperature;humidity
10802;DHT22;5453;50.852;7.102;2022-09-09T00:01:01;19.10;99.90
10802;DHT22;5453;50.852;7.102;2022-09-09T00:03:43;19.20;99.90
10802;DHT22;5453;50.852;7.102;2022-09-09T00:06:21;19.10;99.90
10802;DHT22;5453;50.852;7.102;2022-09-09T00:09:02;19.10;99.90
10802;DHT22;5453;50.852;7.102;2022-09-09T00:11:43;19.10;99.90
10802;DHT22;5453;50.852;7.102;2022-09-09T00:14:23;19.10;99.90
10802;DHT22;5453;50.852;7.102;2022-09-09T00:17:08;19.10;99.90
10802;DHT22;5453;50.852;7.102;2022-09-09T00:19:46;19.10;99.90
10802;DHT22;5453;50.852;7.102;2022-09-09T00:22:23;19.10;99.90
10802;DHT22;5453;50.852;7.102;2022-09-09T00:25:03;19.10;99.90
10802;DHT22;5453;50.852;7.102;2022-09-09T00:27:46;19.10;99.90
10802;DHT22;5453;50.852;7.102;2022-09-09T00:30:22;19.00;99.90
10802;DHT22;5453;50.852;7.102;2022-09-09T00:33:00;19.00;99.90
10802;DHT22;5453;50.852;7.102;2022-09-09T00:35:35;19.00;99.90
10802;DHT22;5453;50.852;7.102;2022-09-09T00:38:13;18.90;99.90
10802;DHT22;5453;50.852;7.102;2022-09-09T00:40:50;18.90;99.90
10802;DHT22;5453;50.852;7.102;2022-09-09T00:43:28;18.90;99.90
10802;DHT22;5453;50.852;7.102;2022-09-09T00:49:29;18.90;99.90
10802;DHT22;5453;50.852;7.102;2022-09-09T00:52:18;18.90;99.90
10802;DHT22;5453;50.852;7.102;2022-09-09T00:55:05;18.80;99.90
10802;DHT22;5453;50.852;7.102;2022-09-09T00:57:40;18.80;99.90
10802;DHT22;5453;50.852;7.102;2022-09-09T01:00:22;18.90;99.90
10802;DHT22;5453;50.852;7.102;2022-09-09T01:03:20;18.90;99.90
10802;DHT22;5453;50.852;7.102;2022-09-09T01:06:01;18.90;99.90
10802;DHT22;5453;50.852;7.102;2022-09-09T01:09:07;18.90;99.90
10802;DHT22;5453;50.852;7.102;2022-09-09T01:11:51;18.90;99.90
10802;DHT22;5453;50.852;7.102;2022-09-09T01:14:40;18.90;99.90
10802;DHT22;5453;50.852;7.102;2022-09-09T01:17:19;18.90;99.90
10802;DHT22;5453;50.852;7.102;2022-09-09T01:20:04;18.90;99.90
10802;DHT22;5453;50.852;7.102;2022-09-09T01:23:11;18.90;99.90
10802;DHT22;5453;50.852;7.102;2022-09-09T01:26:30;18.80;99.90
10802;DHT22;5453;50.852;7.102;2022-09-09T01:29:11;18.80;99.90
10802;DHT22;5453;50.852;7.102;2022-09-09T01:31:53;18.80;99.90
10802;DHT22;5453;50.852;7.102;2022-09-09T01:34:27;18.80;99.90
10802;DHT22;5453;50.852;7.102;2022-09-09T01:37:04;18.70;99.90
10802;DHT22;5453;50.852;7.102;2022-09-09T01:39:39;18.70;99.90
10802;DHT22;5453;50.852;7.102;2022-09-09T01:42:17;18.70;99.90
10802;DHT22;5453;50.852;7.102;2022-09-09T01:44:50;18.70;99.90
10802;DHT22;5453;50.852;7.102;2022-09-09T01:47:23;18.70;99.90
10802;DHT22;5453;50.852;7.102;2022-09-09T01:50:15;18.70;99.90
10802;DHT22;5453;50.852;7.102;2022-09-09T01:52:49;18.60;99.90
10802;DHT22;5453;50.852;7.102;2022-09-09T01:55:30;18.60;99.90
10802;DHT22;5453;50.852;7.102;2022-09-09T01:58:26;18.60;99.90
10802;DHT22;5453;50.852;7.102;2022-09-09T02:01:10;18.60;99.90
10802;DHT22;5453;50.852;7.102;2022-09-09T02:03:52;18.60;99.90
10802;DHT22;5453;50.852;7.102;2022-09-09T02:06:31;18.60;99.90
10802;DHT22;5453;50.852;7.102;2022-09-09T02:09:26;18.60;99.90
10802;DHT22;5453;50.852;7.102;2022-09-09T02:12:04;18.60;99.90
10802;DHT22;5453;50.852;7.102;2022-09-09T02:14:55;18.60;99.90
10802;DHT22;5453;50.852;7.102;2022-09-09T02:17:34;18.60;99.90
10802;DHT22;5453;50.852;7.102;2022-09-09T02:20:18;18.60;99.90
10802;DHT22;5453;50.852;7.102;2022-09-09T02:22:56;18.60;99.90
10802;DHT22;5453;50.852;7.102;2022-09-09T02:25:30;18.60;99.90
10802;DHT22;5453;50.852;7.102;2022-09-09T02:28:14;18.50;99.90
10802;DHT22;5453;50.852;7.102;2022-09-09T02:30:50;18.60;99.90
10802;DHT22;5453;50.852;7.102;2022-09-09T02:33:32;18.60;99.90
10802;DHT22;5453;50.852;7.102;2022-09-09T02:36:10;18.60;99.90
10802;DHT22;5453;50.852;7.102;2022-09-09T02:38:46;18.60;99.90
10802;DHT22;5453;50.852;7.102;2022-09-09T02:41:30;18.60;99.90
10802;DHT22;5453;50.852;7.102;2022-09-09T02:44:05;18.60;99.90
10802;DHT22;5453;50.852;7.102;2022-09-09T02:47:07;18.60;99.90
10802;DHT22;5453;50.852;7.102;2022-09-09T02:49:56;18.60;99.90
10802;DHT22;5453;50.852;7.102;2022-09-09T02:52:42;18.60;99.90
10802;DHT22;5453;50.852;7.102;2022-09-09T02:55:23;18.60;99.90
10802;DHT22;5453;50.852;7.102;2022-09-09T02:58:03;18.60;99.90
10802;DHT22;5453;50.852;7.102;2022-09-09T03:00:39;18.60;99.90
10802;DHT22;5453;50.852;7.102;2022-09-09T03:03:14;18.60;99.90
10802;DHT22;5453;50.852;7.102;2022-09-09T03:05:47;18.60;99.90
10802;DHT22;5453;50.852;7.102;2022-09-09T03:08:20;18.60;99.90
10802;DHT22;5453;50.852;7.102;2022-09-09T03:10:54;18.60;99.90
10802;DHT22;5453;50.852;7.102;2022-09-09T03:13:27;18.70;99.90
10802;DHT22;5453;50.852;7.102;2022-09-09T03:15:59;18.70;99.90
10802;DHT22;5453;50.852;7.102;2022-09-09T03:18:37;18.70;99.90
10802;DHT22;5453;50.852;7.102;2022-09-09T03:21:10;18.60;99.90
10802;DHT22;5453;50.852;7.102;2022-09-09T03:23:44;18.60;99.90
10802;DHT22;5453;50.852;7.102;2022-09-09T03:26:16;18.60;99.90
10802;DHT22;5453;50.852;7.102;2022-09-09T03:28:51;18.60;99.90
10802;DHT22;5453;50.852;7.102;2022-09-09T03:31:26;18.60;99.90
10802;DHT22;5453;50.852;7.102;2022-09-09T03:34:02;18.60;99.90
10802;DHT22;5453;50.852;7.102;2022-09-09T03:36:37;18.60;99.90
10802;DHT22;5453;50.852;7.102;2022-09-09T03:39:12;18.60;99.90
10802;DHT22;5453;50.852;7.102;2022-09-09T03:41:47;18.60;99.90
10802;DHT22;5453;50.852;7.102;2022-09-09T03:44:20;18.60;99.90
10802;DHT22;5453;50.852;7.102;2022-09-09T03:46:52;18.60;99.90
10802;DHT22;5453;50.852;7.102;2022-09-09T03:49:26;18.60;99.90
10802;DHT22;5453;50.852;7.102;2022-09-09T03:52:00;18.60;99.90
10802;DHT22;5453;50.852;7.102;2022-09-09T03:54:34;18.70;99.90
10802;DHT22;5453;50.852;7.102;2022-09-09T03:57:06;18.70;99.90
10802;DHT22;5453;50.852;7.102;2022-09-09T03:59:38;18.60;99.90
10802;DHT22;5453;50.852;7.102;2022-09-09T04:02:11;18.60;99.90
10802;DHT22;5453;50.852;7.102;2022-09-09T04:04:44;18.60;99.90
10802;DHT22;5453;50.852;7.102;2022-09-09T04:07:17;18.70;99.90
10802;DHT22;5453;50.852;7.102;2022-09-09T04:09:49;18.60;99.90
10802;DHT22;5453;50.852;7.102;2022-09-09T04:12:22;18.70;99.90
10802;DHT22;5453;50.852;7.102;2022-09-09T04:14:54;18.70;99.90
10802;DHT22;5453;50.852;7.102;2022-09-09T04:17:27;18.60;99.90
10802;DHT22;5453;50.852;7.102;2022-09-09T04:20:02;18.60;99.90
10802;DHT22;5453;50.852;7.102;2022-09-09T04:22:35;18.60;99.90
10802;DHT22;5453;50.852;7.102;2022-09-09T04:25:09;18.60;99.90
10802;DHT22;5453;50.852;7.102;2022-09-09T04:27:41;18.60;99.90
10802;DHT22;5453;50.852;7.102;2022-09-09T04:30:14;18.60;99.90
10802;DHT22;5453;50.852;7.102;2022-09-09T04:32:47;18.60;99.90
10802;DHT22;5453;50.852;7.102;2022-09-09T04:35:21;18.60;99.90
10802;DHT22;5453;50.852;7.102;2022-09-09T04:37:54;18.60;99.90
10802;DHT22;5453;50.852;7.102;2022-09-09T04:40:26;18.60;99.90
10802;DHT22;5453;50.852;7.102;2022-09-09T04:42:59;18.60;99.90
10802;DHT22;5453;50.852;7.102;2022-09-09T04:45:31;18.60;99.90
10802;DHT22;5453;50.852;7.102;2022-09-09T04:48:05;18.60;99.90
10802;DHT22;5453;50.852;7.102;2022-09-09T04:50:39;18.60;99.90
10802;DHT22;5453;50.852;7.102;2022-09-09T04:53:15;18.60;99.90
10802;DHT22;5453;50.852;7.102;2022-09-09T04:55:47;18.50;99.90
10802;DHT22;5453;50.852;7.102;2022-09-09T04:58:19;18.50;99.90
10802;DHT22;5453;50.852;7.102;2022-09-09T05:00:54;18.50;99.90
10802;DHT22;5453;50.852;7.102;2022-09-09T05:03:26;18.50;99.90
10802;DHT22;5453;50.852;7.102;2022-09-09T05:06:05;18.50;99.90
10802;DHT22;5453;50.852;7.102;2022-09-09T05:08:42;18.50;99.90
10802;DHT22;5453;50.852;7.102;2022-09-09T05:11:20;18.50;99.90
10802;DHT22;5453;50.852;7.102;2022-09-09T05:13:55;18.50;99.90
10802;DHT22;5453;50.852;7.102;2022-09-09T05:16:28;18.50;99.90
10802;DHT22;5453;50.852;7.102;2022-09-09T05:19:02;18.50;99.90
10802;DHT22;5453;50.852;7.102;2022-09-09T05:21:46;18.50;99.90
10802;DHT22;5453;50.852;7.102;2022-09-09T05:24:22;18.50;99.90
10802;DHT22;5453;50.852;7.102;2022-09-09T05:26:57;18.50;99.90
10802;DHT22;5453;50.852;7.102;2022-09-09T05:29:31;18.50;99.90
10802;DHT22;5453;50.852;7.102;2022-09-09T05:32:06;18.50;99.90
10802;DHT22;5453;50.852;7.102;2022-09-09T05:34:40;18.40;99.90
10802;DHT22;5453;50.852;7.102;2022-09-09T05:37:13;18.50;99.90
10802;DHT22;5453;50.852;7.102;2022-09-09T05:39:47;18.50;99.90
10802;DHT22;5453;50.852;7.102;2022-09-09T05:42:21;18.40;99.90
10802;DHT22;5453;50.852;7.102;2022-09-09T05:44:54;18.40;99.90
10802;DHT22;5453;50.852;7.102;2022-09-09T05:47:26;18.50;99.90
10802;DHT22;5453;50.852;7.102;2022-09-09T05:49:59;18.50;99.90
10802;DHT22;5453;50.852;7.102;2022-09-09T05:52:34;18.50;99.90
10802;DHT22;5453;50.852;7.102;2022-09-09T05:55:09;18.50;99.90
10802;DHT22;5453;50.852;7.102;2022-09-09T05:57:41;18.50;99.90
10802;DHT22;5453;50.852;7.102;2022-09-09T06:00:14;18.60;99.90
10802;DHT22;5453;50.852;7.102;2022-09-09T06:02:51;18.60;99.90
10802;DHT22;5453;50.852;7.102;2022-09-09T06:05:25;18.60;99.90
10802;DHT22;5453;50.852;7.102;2022-09-09T06:08:00;18.60;99.90
10802;DHT22;5453;50.852;7.102;2022-09-09T06:10:33;18.60;99.90
10802;DHT22;5453;50.852;7.102;2022-09-09T06:13:05;18.50;99.90
10802;DHT22;5453;50.852;7.102;2022-09-09T06:15:38;18.60;99.90
10802;DHT22;5453;50.852;7.102;2022-09-09T06:18:11;18.60;99.90
10802;DHT22;5453;50.852;7.102;2022-09-09T06:20:43;18.70;99.90
10802;DHT22;5453;50.852;7.102;2022-09-09T06:23:27;18.70;99.90
10802;DHT22;5453;50.852;7.102;2022-09-09T06:26:04;18.70;99.90
10802;DHT22;5453;50.852;7.102;2022-09-09T06:28:39;18.70;99.90
10802;DHT22;5453;50.852;7.102;2022-09-09T06:31:15;18.80;99.90
10802;DHT22;5453;50.852;7.102;2022-09-09T06:33:49;18.80;99.90
10802;DHT22;5453;50.852;7.102;2022-09-09T06:36:25;18.80;99.90
10802;DHT22;5453;50.852;7.102;2022-09-09T06:38:59;18.90;99.90
10802;DHT22;5453;50.852;7.102;2022-09-09T06:41:33;19.00;99.90
10802;DHT22;5453;50.852;7.102;2022-09-09T06:44:07;19.00;99.90
10802;DHT22;5453;50.852;7.102;2022-09-09T06:46:46;19.20;99.90
10802;DHT22;5453;50.852;7.102;2022-09-09T06:49:19;19.30;99.90
10802;DHT22;5453;50.852;7.102;2022-09-09T06:51:52;19.50;99.90
10802;DHT22;5453;50.852;7.102;2022-09-09T06:54:26;19.70;99.90
10802;DHT22;5453;50.852;7.102;2022-09-09T06:56:59;19.80;99.90
10802;DHT22;5453;50.852;7.102;2022-09-09T06:59:31;20.00;99.90
10802;DHT22;5453;50.852;7.102;2022-09-09T07:02:04;20.20;99.90
10802;DHT22;5453;50.852;7.102;2022-09-09T07:04:36;20.50;99.90
10802;DHT22;5453;50.852;7.102;2022-09-09T07:07:08;21.00;99.10
10802;DHT22;5453;50.852;7.102;2022-09-09T07:09:44;21.30;98.20
10802;DHT22;5453;50.852;7.102;2022-09-09T07:12:16;21.60;97.20
10802;DHT22;5453;50.852;7.102;2022-09-09T07:14:57;21.90;96.60
10802;DHT22;5453;50.852;7.102;2022-09-09T07:17:29;22.20;95.60
10802;DHT22;5453;50.852;7.102;2022-09-09T07:20:04;22.50;95.20
10802;DHT22;5453;50.852;7.102;2022-09-09T07:22:37;22.90;94.70
10802;DHT22;5453;50.852;7.102;2022-09-09T07:25:11;23.10;93.70
10802;DHT22;5453;50.852;7.102;2022-09-09T07:27:44;23.20;93.10
10802;DHT22;5453;50.852;7.102;2022-09-09T07:30:17;23.40;92.60
10802;DHT22;5453;50.852;7.102;2022-09-09T07:32:51;23.50;92.20
10802;DHT22;5453;50.852;7.102;2022-09-09T07:35:24;23.70;91.70
10802;DHT22;5453;50.852;7.102;2022-09-09T07:37:57;23.80;91.40
10802;DHT22;5453;50.852;7.102;2022-09-09T07:40:31;23.90;90.90
10802;DHT22;5453;50.852;7.102;2022-09-09T07:43:04;24.20;90.50
10802;DHT22;5453;50.852;7.102;2022-09-09T07:45:38;24.30;89.50
10802;DHT22;5453;50.852;7.102;2022-09-09T07:48:11;24.30;88.20
10802;DHT22;5453;50.852;7.102;2022-09-09T07:50:43;24.20;87.10
10802;DHT22;5453;50.852;7.102;2022-09-09T07:53:15;23.90;85.20
10802;DHT22;5453;50.852;7.102;2022-09-09T07:55:49;23.60;85.30
10802;DHT22;5453;50.852;7.102;2022-09-09T07:58:21;23.20;86.20
10802;DHT22;5453;50.852;7.102;2022-09-09T08:00:54;22.90;87.80
10802;DHT22;5453;50.852;7.102;2022-09-09T08:03:27;22.60;89.10
10802;DHT22;5453;50.852;7.102;2022-09-09T08:06:00;22.50;89.50
10802;DHT22;5453;50.852;7.102;2022-09-09T08:08:33;22.30;89.80
10802;DHT22;5453;50.852;7.102;2022-09-09T08:11:10;22.10;90.40
10802;DHT22;5453;50.852;7.102;2022-09-09T08:13:44;22.00;91.00
10802;DHT22;5453;50.852;7.102;2022-09-09T08:16:20;21.80;91.20
10802;DHT22;5453;50.852;7.102;2022-09-09T08:18:53;21.70;91.60
10802;DHT22;5453;50.852;7.102;2022-09-09T08:21:27;21.60;91.50
10802;DHT22;5453;50.852;7.102;2022-09-09T08:24:03;21.60;91.50
10802;DHT22;5453;50.852;7.102;2022-09-09T08:26:39;21.50;91.60
10802;DHT22;5453;50.852;7.102;2022-09-09T08:29:14;21.40;91.70
10802;DHT22;5453;50.852;7.102;2022-09-09T08:31:50;21.40;91.90
10802;DHT22;5453;50.852;7.102;2022-09-09T08:34:25;21.30;92.10
10802;DHT22;5453;50.852;7.102;2022-09-09T08:37:00;21.30;92.20
10802;DHT22;5453;50.852;7.102;2022-09-09T08:39:38;21.30;92.20
10802;DHT22;5453;50.852;7.102;2022-09-09T08:42:23;21.30;92.20
10802;DHT22;5453;50.852;7.102;2022-09-09T08:45:19;21.20;91.70
10802;DHT22;5453;50.852;7.102;2022-09-09T08:48:08;21.30;91.60
10802;DHT22;5453;50.852;7.102;2022-09-09T08:50:49;21.30;91.50
10802;DHT22;5453;50.852;7.102;2022-09-09T08:53:28;21.40;91.20
10802;DHT22;5453;50.852;7.102;2022-09-09T08:56:09;21.40;91.20
10802;DHT22;5453;50.852;7.102;2022-09-09T08:58:56;21.40;91.30
10802;DHT22;5453;50.852;7.102;2022-09-09T09:01:43;21.70;90.60
10802;DHT22;5453;50.852;7.102;2022-09-09T09:04:49;21.70;90.50
10802;DHT22;5453;50.852;7.102;2022-09-09T09:07:44;21.70;90.50
10802;DHT22;5453;50.852;7.102;2022-09-09T09:10:35;21.70;90.20
10802;DHT22;5453;50.852;7.102;2022-09-09T09:13:20;21.70;90.10
10802;DHT22;5453;50.852;7.102;2022-09-09T09:16:02;21.80;90.30
10802;DHT22;5453;50.852;7.102;2022-09-09T09:18:39;21.80;90.00
10802;DHT22;5453;50.852;7.102;2022-09-09T09:21:16;22.00;90.20
10802;DHT22;5453;50.852;7.102;2022-09-09T09:23:57;22.40;90.10
10802;DHT22;5453;50.852;7.102;2022-09-09T09:26:33;22.70;89.20
10802;DHT22;5453;50.852;7.102;2022-09-09T09:29:11;22.70;87.20
10802;DHT22;5453;50.852;7.102;2022-09-09T09:31:50;22.70;86.10
10802;DHT22;5453;50.852;7.102;2022-09-09T09:34:26;22.60;86.40
10802;DHT22;5453;50.852;7.102;2022-09-09T09:37:01;22.40;87.10
10802;DHT22;5453;50.852;7.102;2022-09-09T09:39:36;22.30;87.30
10802;DHT22;5453;50.852;7.102;2022-09-09T09:42:12;22.20;88.20
10802;DHT22;5453;50.852;7.102;2022-09-09T09:44:46;22.10;87.80
10802;DHT22;5453;50.852;7.102;2022-09-09T09:47:24;22.10;87.60
10802;DHT22;5453;50.852;7.102;2022-09-09T09:50:18;22.00;88.10
10802;DHT22;5453;50.852;7.102;2022-09-09T09:52:55;22.10;88.70
10802;DHT22;5453;50.852;7.102;2022-09-09T09:55:30;22.20;88.90
10802;DHT22;5453;50.852;7.102;2022-09-09T09:58:05;22.20;88.70
10802;DHT22;5453;50.852;7.102;2022-09-09T10:00:47;22.20;88.30
10802;DHT22;5453;50.852;7.102;2022-09-09T10:03:25;22.20;88.30
10802;DHT22;5453;50.852;7.102;2022-09-09T10:05:59;22.10;88.00
10802;DHT22;5453;50.852;7.102;2022-09-09T10:08:34;22.20;87.30
10802;DHT22;5453;50.852;7.102;2022-09-09T10:11:29;22.20;87.30
10802;DHT22;5453;50.852;7.102;2022-09-09T10:14:13;22.40;86.10
10802;DHT22;5453;50.852;7.102;2022-09-09T10:17:03;22.60;83.70
10802;DHT22;5453;50.852;7.102;2022-09-09T10:19:50;22.70;82.20
10802;DHT22;5453;50.852;7.102;2022-09-09T10:22:32;23.00;81.90
10802;DHT22;5453;50.852;7.102;2022-09-09T10:25:17;23.10;81.20
10802;DHT22;5453;50.852;7.102;2022-09-09T10:28:07;23.10;80.90
10802;DHT22;5453;50.852;7.102;2022-09-09T10:30:55;23.00;81.00
10802;DHT22;5453;50.852;7.102;2022-09-09T10:33:44;22.90;81.80
10802;DHT22;5453;50.852;7.102;2022-09-09T10:36:24;22.80;82.20
10802;DHT22;5453;50.852;7.102;2022-09-09T10:39:01;22.60;82.80
10802;DHT22;5453;50.852;7.102;2022-09-09T10:41:43;22.50;83.40
10802;DHT22;5453;50.852;7.102;2022-09-09T10:44:35;22.50;84.20
10802;DHT22;5453;50.852;7.102;2022-09-09T10:47:37;22.50;84.30
10802;DHT22;5453;50.852;7.102;2022-09-09T10:50:45;22.50;84.10
10802;DHT22;5453;50.852;7.102;2022-09-09T10:53:35;22.50;82.60
10802;DHT22;5453;50.852;7.102;2022-09-09T10:56:12;22.50;83.10
10802;DHT22;5453;50.852;7.102;2022-09-09T10:58:48;22.50;83.20
10802;DHT22;5453;50.852;7.102;2022-09-09T11:01:26;22.50;84.00
10802;DHT22;5453;50.852;7.102;2022-09-09T11:04:03;22.50;83.50
10802;DHT22;5453;50.852;7.102;2022-09-09T11:06:42;22.60;82.10
10802;DHT22;5453;50.852;7.102;2022-09-09T11:09:22;22.60;81.90
10802;DHT22;5453;50.852;7.102;2022-09-09T11:11:57;22.70;82.70
10802;DHT22;5453;50.852;7.102;2022-09-09T11:14:33;22.80;83.00
10802;DHT22;5453;50.852;7.102;2022-09-09T11:17:11;23.20;82.40
10802;DHT22;5453;50.852;7.102;2022-09-09T11:19:45;23.60;79.20
10802;DHT22;5453;50.852;7.102;2022-09-09T11:22:24;24.00;78.90
10802;DHT22;5453;50.852;7.102;2022-09-09T11:25:05;24.00;77.00
10802;DHT22;5453;50.852;7.102;2022-09-09T11:27:49;24.00;76.70
10802;DHT22;5453;50.852;7.102;2022-09-09T11:30:37;23.90;76.90
10802;DHT22;5453;50.852;7.102;2022-09-09T11:33:54;23.70;76.70
10802;DHT22;5453;50.852;7.102;2022-09-09T11:36:51;23.50;76.90
10802;DHT22;5453;50.852;7.102;2022-09-09T11:39:59;23.40;77.00
10802;DHT22;5453;50.852;7.102;2022-09-09T11:42:46;23.20;77.40
10802;DHT22;5453;50.852;7.102;2022-09-09T11:45:23;23.10;77.40
10802;DHT22;5453;50.852;7.102;2022-09-09T11:47:58;23.00;78.00
10802;DHT22;5453;50.852;7.102;2022-09-09T11:50:36;22.90;77.90
10802;DHT22;5453;50.852;7.102;2022-09-09T11:53:22;22.90;77.80
10802;DHT22;5453;50.852;7.102;2022-09-09T11:56:27;22.90;78.30
10802;DHT22;5453;50.852;7.102;2022-09-09T11:59:02;22.80;78.00
10802;DHT22;5453;50.852;7.102;2022-09-09T12:01:37;22.80;78.10
10802;DHT22;5453;50.852;7.102;2022-09-09T12:04:31;22.80;78.20
10802;DHT22;5453;50.852;7.102;2022-09-09T12:07:23;22.80;78.80
10802;DHT22;5453;50.852;7.102;2022-09-09T12:10:05;22.80;78.10
10802;DHT22;5453;50.852;7.102;2022-09-09T12:12:52;22.80;78.70
10802;DHT22;5453;50.852;7.102;2022-09-09T12:15:27;22.80;78.20
10802;DHT22;5453;50.852;7.102;2022-09-09T12:18:00;22.70;78.40
10802;DHT22;5453;50.852;7.102;2022-09-09T12:20:34;22.70;78.80
10802;DHT22;5453;50.852;7.102;2022-09-09T12:23:27;22.60;78.90
10802;DHT22;5453;50.852;7.102;2022-09-09T12:29:12;22.50;79.30
10802;DHT22;5453;50.852;7.102;2022-09-09T12:31:56;22.50;79.70
10802;DHT22;5453;50.852;7.102;2022-09-09T12:34:38;22.50;79.90
10802;DHT22;5453;50.852;7.102;2022-09-09T12:37:18;22.50;80.00
10802;DHT22;5453;50.852;7.102;2022-09-09T12:39:56;22.50;80.10
10802;DHT22;5453;50.852;7.102;2022-09-09T12:42:30;22.50;80.80
10802;DHT22;5453;50.852;7.102;2022-09-09T12:45:16;22.40;79.00
10802;DHT22;5453;50.852;7.102;2022-09-09T12:47:51;22.40;79.10
10802;DHT22;5453;50.852;7.102;2022-09-09T12:50:27;22.30;78.70
10802;DHT22;5453;50.852;7.102;2022-09-09T12:53:03;22.30;79.10
10802;DHT22;5453;50.852;7.102;2022-09-09T12:55:40;22.30;79.30
10802;DHT22;5453;50.852;7.102;2022-09-09T12:58:21;22.30;78.90
10802;DHT22;5453;50.852;7.102;2022-09-09T13:00:56;22.40;79.20
10802;DHT22;5453;50.852;7.102;2022-09-09T13:03:28;22.50;78.90
10802;DHT22;5453;50.852;7.102;2022-09-09T13:06:11;22.50;79.60
10802;DHT22;5453;50.852;7.102;2022-09-09T13:08:44;22.50;79.70
10802;DHT22;5453;50.852;7.102;2022-09-09T13:11:20;22.60;80.10
10802;DHT22;5453;50.852;7.102;2022-09-09T13:13:55;22.50;80.20
10802;DHT22;5453;50.852;7.102;2022-09-09T13:16:31;22.50;80.30
10802;DHT22;5453;50.852;7.102;2022-09-09T13:19:08;22.50;80.80
10802;DHT22;5453;50.852;7.102;2022-09-09T13:21:41;22.30;81.50
10802;DHT22;5453;50.852;7.102;2022-09-09T13:24:26;22.30;83.30
10802;DHT22;5453;50.852;7.102;2022-09-09T13:27:02;22.20;83.90
10802;DHT22;5453;50.852;7.102;2022-09-09T13:29:36;22.10;84.40
10802;DHT22;5453;50.852;7.102;2022-09-09T13:32:17;22.00;85.50
10802;DHT22;5453;50.852;7.102;2022-09-09T13:34:54;22.00;86.10
10802;DHT22;5453;50.852;7.102;2022-09-09T13:37:31;22.20;86.40
10802;DHT22;5453;50.852;7.102;2022-09-09T13:40:06;22.40;85.60
10802;DHT22;5453;50.852;7.102;2022-09-09T13:42:52;22.60;85.30
10802;DHT22;5453;50.852;7.102;2022-09-09T13:45:27;22.90;82.30
10802;DHT22;5453;50.852;7.102;2022-09-09T13:48:09;23.10;81.60
10802;DHT22;5453;50.852;7.102;2022-09-09T13:50:42;23.20;80.70
10802;DHT22;5453;50.852;7.102;2022-09-09T13:53:25;23.20;79.40
10802;DHT22;5453;50.852;7.102;2022-09-09T13:55:58;23.20;79.60
10802;DHT22;5453;50.852;7.102;2022-09-09T13:58:31;23.10;80.10
10802;DHT22;5453;50.852;7.102;2022-09-09T14:01:04;23.10;80.50
10802;DHT22;5453;50.852;7.102;2022-09-09T14:03:37;23.00;80.60
10802;DHT22;5453;50.852;7.102;2022-09-09T14:06:10;23.00;80.90
10802;DHT22;5453;50.852;7.102;2022-09-09T14:08:42;22.90;79.60
10802;DHT22;5453;50.852;7.102;2022-09-09T14:11:17;22.80;80.30
10802;DHT22;5453;50.852;7.102;2022-09-09T14:13:50;22.80;81.50
10802;DHT22;5453;50.852;7.102;2022-09-09T14:16:22;22.70;82.00
10802;DHT22;5453;50.852;7.102;2022-09-09T14:18:55;22.70;82.60
10802;DHT22;5453;50.852;7.102;2022-09-09T14:21:28;22.70;83.20
10802;DHT22;5453;50.852;7.102;2022-09-09T14:24:00;22.60;83.60
10802;DHT22;5453;50.852;7.102;2022-09-09T14:26:32;22.60;84.20
10802;DHT22;5453;50.852;7.102;2022-09-09T14:29:04;22.60;84.40
10802;DHT22;5453;50.852;7.102;2022-09-09T14:31:36;22.60;84.40
10802;DHT22;5453;50.852;7.102;2022-09-09T14:34:09;22.60;84.40
10802;DHT22;5453;50.852;7.102;2022-09-09T14:36:42;22.50;84.50
10802;DHT22;5453;50.852;7.102;2022-09-09T14:39:15;22.50;84.70
10802;DHT22;5453;50.852;7.102;2022-09-09T14:41:47;22.50;85.10
10802;DHT22;5453;50.852;7.102;2022-09-09T14:44:19;22.50;85.40
10802;DHT22;5453;50.852;7.102;2022-09-09T14:46:52;22.60;85.70
10802;DHT22;5453;50.852;7.102;2022-09-09T14:49:26;22.60;85.30
10802;DHT22;5453;50.852;7.102;2022-09-09T14:51:58;22.60;85.50
10802;DHT22;5453;50.852;7.102;2022-09-09T14:54:31;22.60;85.80
10802;DHT22;5453;50.852;7.102;2022-09-09T14:57:04;22.80;85.60
10802;DHT22;5453;50.852;7.102;2022-09-09T14:59:36;22.80;84.70
10802;DHT22;5453;50.852;7.102;2022-09-09T15:02:08;22.80;84.00
10802;DHT22;5453;50.852;7.102;2022-09-09T15:04:42;22.70;83.90
10802;DHT22;5453;50.852;7.102;2022-09-09T15:07:14;22.70;84.80
10802;DHT22;5453;50.852;7.102;2022-09-09T15:09:47;22.60;84.80
10802;DHT22;5453;50.852;7.102;2022-09-09T15:12:19;22.50;85.30
10802;DHT22;5453;50.852;7.102;2022-09-09T15:14:52;22.40;86.00
10802;DHT22;5453;50.852;7.102;2022-09-09T15:17:25;22.20;90.40
10802;DHT22;5453;50.852;7.102;2022-09-09T15:19:59;22.00;91.70
10802;DHT22;5453;50.852;7.102;2022-09-09T15:22:31;21.90;93.30
10802;DHT22;5453;50.852;7.102;2022-09-09T15:25:05;21.80;94.70
10802;DHT22;5453;50.852;7.102;2022-09-09T15:27:38;21.70;95.70
10802;DHT22;5453;50.852;7.102;2022-09-09T15:30:11;21.50;96.60
10802;DHT22;5453;50.852;7.102;2022-09-09T15:32:44;21.40;96.90
10802;DHT22;5453;50.852;7.102;2022-09-09T15:35:17;21.20;97.90
10802;DHT22;5453;50.852;7.102;2022-09-09T15:37:51;21.00;98.60
10802;DHT22;5453;50.852;7.102;2022-09-09T15:40:23;20.90;99.10
10802;DHT22;5453;50.852;7.102;2022-09-09T15:42:56;20.80;99.90
10802;DHT22;5453;50.852;7.102;2022-09-09T15:45:28;20.70;99.90
10802;DHT22;5453;50.852;7.102;2022-09-09T15:48:03;20.60;99.90
10802;DHT22;5453;50.852;7.102;2022-09-09T15:50:37;20.40;99.90
10802;DHT22;5453;50.852;7.102;2022-09-09T15:53:09;20.30;99.90
10802;DHT22;5453;50.852;7.102;2022-09-09T15:55:42;20.30;99.90
10802;DHT22;5453;50.852;7.102;2022-09-09T15:58:14;20.20;99.90
10802;DHT22;5453;50.852;7.102;2022-09-09T16:00:47;20.10;99.90
10802;DHT22;5453;50.852;7.102;2022-09-09T16:03:19;20.10;99.90
10802;DHT22;5453;50.852;7.102;2022-09-09T16:05:53;20.00;99.90
10802;DHT22;5453;50.852;7.102;2022-09-09T16:08:30;20.00;99.90
10802;DHT22;5453;50.852;7.102;2022-09-09T16:11:08;19.80;99.90
10802;DHT22;5453;50.852;7.102;2022-09-09T16:13:42;19.80;99.90
10802;DHT22;5453;50.852;7.102;2022-09-09T16:16:17;19.70;99.90
10802;DHT22;5453;50.852;7.102;2022-09-09T16:18:53;19.70;99.90
10802;DHT22;5453;50.852;7.102;2022-09-09T16:21:30;19.60;99.90
10802;DHT22;5453;50.852;7.102;2022-09-09T16:24:06;19.60;99.90
10802;DHT22;5453;50.852;7.102;2022-09-09T16:26:43;19.50;99.90
10802;DHT22;5453;50.852;7.102;2022-09-09T16:29:17;19.50;99.90
10802;DHT22;5453;50.852;7.102;2022-09-09T16:31:50;19.50;99.90
10802;DHT22;5453;50.852;7.102;2022-09-09T16:34:22;19.50;99.90
10802;DHT22;5453;50.852;7.102;2022-09-09T16:36:57;19.50;99.90
10802;DHT22;5453;50.852;7.102;2022-09-09T16:39:29;19.50;99.90
10802;DHT22;5453;50.852;7.102;2022-09-09T16:42:01;19.50;99.90
10802;DHT22;5453;50.852;7.102;2022-09-09T16:44:35;19.40;99.90
10802;DHT22;5453;50.852;7.102;2022-09-09T16:47:07;19.40;99.90
10802;DHT22;5453;50.852;7.102;2022-09-09T16:49:39;19.30;99.90
10802;DHT22;5453;50.852;7.102;2022-09-09T16:52:13;19.30;99.90
10802;DHT22;5453;50.852;7.102;2022-09-09T16:54:45;19.30;99.90
10802;DHT22;5453;50.852;7.102;2022-09-09T16:57:17;19.30;99.90